sensor_id;sensor_type;location;lat;lon;timestamp;pressure;altitude;pressure_sealevel;temperature;humidity
80202;BME280;69521;54.454;9.928;2023-05-24T00:02:14;101749.91;;;9.53;75.72
80202;BME280;69521;54.454;9.928;2023-05-24T00:04:50;101739.59;;;9.47;75.02
80202;BME280;69521;54.454;9.928;2023-05-24T00:07:19;101761.19;;;9.58;75.09
80202;BME280;69521;54.454;9.928;2023-05-24T00:09:54;101751.44;;;9.57;75.60
80202;BME280;69521;54.454;9.928;2023-05-24T00:12:20;101751.66;;;9.54;75.08
80202;BME280;69521;54.454;9.928;2023-05-24T00:14:54;101749.25;;;9.49;75.03
80202;BME280;69521;54.454;9.928;2023-05-24T00:17:19;101747.22;;;9.53;75.55
80202;BME280;69521;54.454;9.928;2023-05-24T00:19:45;101749.03;;;9.52;75.28
80202;BME280;69521;54.454;9.928;2023-05-24T00:22:13;101754.75;;;9.61;75.37
80202;BME280;69521;54.454;9.928;2023-05-24T00:24:39;101750.13;;;9.63;74.70
80202;BME280;69521;54.454;9.928;2023-05-24T00:27:08;101739.16;;;9.53;74.61
80202;BME280;69521;54.454;9.928;2023-05-24T00:29:33;101750.47;;;9.58;74.92
80202;BME280;69521;54.454;9.928;2023-05-24T00:31:59;101746.16;;;9.55;75.26
80202;BME280;69521;54.454;9.928;2023-05-24T00:34:31;101740.97;;;9.52;75.04
80202;BME280;69521;54.454;9.928;2023-05-24T00:37:08;101736.81;;;9.61;75.17
80202;BME280;69521;54.454;9.928;2023-05-24T00:39:36;101737.31;;;9.66;75.33
80202;BME280;69521;54.454;9.928;2023-05-24T00:42:03;101733.88;;;9.64;74.99
80202;BME280;69521;54.454;9.928;2023-05-24T00:44:29;101738.19;;;9.67;74.67
80202;BME280;69521;54.454;9.928;2023-05-24T00:46:55;101746.13;;;9.68;75.26
80202;BME280;69521;54.454;9.928;2023-05-24T00:49:26;101742.19;;;9.61;76.25
80202;BME280;69521;54.454;9.928;2023-05-24T00:52:06;101723.72;;;9.56;75.93
80202;BME280;69521;54.454;9.928;2023-05-24T00:54:34;101736.81;;;9.61;76.29
80202;BME280;69521;54.454;9.928;2023-05-24T00:57:00;101740.31;;;9.74;75.77
80202;BME280;69521;54.454;9.928;2023-05-24T00:59:26;101727.88;;;9.61;76.51
80202;BME280;69521;54.454;9.928;2023-05-24T01:01:51;101737.78;;;9.60;76.47
80202;BME280;69521;54.454;9.928;2023-05-24T01:04:22;101732.28;;;9.62;76.85
80202;BME280;69521;54.454;9.928;2023-05-24T01:07:04;101737.31;;;9.53;77.74
80202;BME280;69521;54.454;9.928;2023-05-24T01:09:54;101747.44;;;9.63;76.92
80202;BME280;69521;54.454;9.928;2023-05-24T01:12:39;101737.31;;;9.53;78.57
80202;BME280;69521;54.454;9.928;2023-05-24T01:15:23;101749.16;;;9.51;78.80
80202;BME280;69521;54.454;9.928;2023-05-24T01:18:30;101750.88;;;9.52;79.25
80202;BME280;69521;54.454;9.928;2023-05-24T01:27:11;101726.72;;;9.39;79.71
80202;BME280;69521;54.454;9.928;2023-05-24T01:29:37;101739.09;;;9.42;79.97
80202;BME280;69521;54.454;9.928;2023-05-24T01:32:04;101731.31;;;9.50;79.91
80202;BME280;69521;54.454;9.928;2023-05-24T01:34:47;101734.69;;;9.41;79.93
80202;BME280;69521;54.454;9.928;2023-05-24T01:37:17;101739.63;;;9.34;80.17
80202;BME280;69521;54.454;9.928;2023-05-24T01:39:42;101732.09;;;9.39;80.49
80202;BME280;69521;54.454;9.928;2023-05-24T01:42:21;101726.63;;;9.41;80.35
80202;BME280;69521;54.454;9.928;2023-05-24T01:50:47;101727.81;;;9.37;80.92
80202;BME280;69521;54.454;9.928;2023-05-24T01:53:34;101721.88;;;9.44;80.47
80202;BME280;69521;54.454;9.928;2023-05-24T01:56:17;101730.47;;;9.49;80.60
80202;BME280;69521;54.454;9.928;2023-05-24T01:58:48;101729.28;;;9.53;80.05
80202;BME280;69521;54.454;9.928;2023-05-24T02:01:19;101741.66;;;9.56;80.42
80202;BME280;69521;54.454;9.928;2023-05-24T02:03:50;101726.91;;;9.49;80.07
80202;BME280;69521;54.454;9.928;2023-05-24T02:06:22;101738.63;;;9.48;80.98
80202;BME280;69521;54.454;9.928;2023-05-24T02:08:55;101723.41;;;9.36;81.49
80202;BME280;69521;54.454;9.928;2023-05-24T02:11:20;101724.47;;;9.46;80.36
80202;BME280;69521;54.454;9.928;2023-05-24T02:13:50;101738.97;;;9.56;80.85
80202;BME280;69521;54.454;9.928;2023-05-24T02:16:15;101730.59;;;9.48;79.96
80202;BME280;69521;54.454;9.928;2023-05-24T02:18:53;101723.72;;;9.56;79.98
80202;BME280;69521;54.454;9.928;2023-05-24T02:21:21;101734.75;;;9.52;80.59
80202;BME280;69521;54.454;9.928;2023-05-24T02:24:37;101735.09;;;9.60;80.18
80202;BME280;69521;54.454;9.928;2023-05-24T02:27:14;101743.44;;;9.68;79.74
80202;BME280;69521;54.454;9.928;2023-05-24T02:29:42;101727.53;;;9.65;80.52
80202;BME280;69521;54.454;9.928;2023-05-24T02:32:08;101738.75;;;9.59;79.40
80202;BME280;69521;54.454;9.928;2023-05-24T02:34:43;101733.59;;;9.56;79.23
80202;BME280;69521;54.454;9.928;2023-05-24T02:37:18;101728.88;;;9.47;79.47
80202;BME280;69521;54.454;9.928;2023-05-24T02:39:55;101738.53;;;9.62;80.00
80202;BME280;69521;54.454;9.928;2023-05-24T02:42:37;101741.94;;;9.64;79.02
80202;BME280;69521;54.454;9.928;2023-05-24T02:45:13;101752.13;;;9.72;78.80
80202;BME280;69521;54.454;9.928;2023-05-24T02:47:40;101734.22;;;9.60;79.82
80202;BME280;69521;54.454;9.928;2023-05-24T02:50:16;101744.44;;;9.54;79.46
80202;BME280;69521;54.454;9.928;2023-05-24T02:52:42;101736.56;;;9.64;79.19
80202;BME280;69521;54.454;9.928;2023-05-24T02:55:09;101747.09;;;9.67;78.71
80202;BME280;69521;54.454;9.928;2023-05-24T02:57:42;101740.75;;;9.68;78.56
80202;BME280;69521;54.454;9.928;2023-05-24T03:00:13;101740.97;;;9.65;78.37
80202;BME280;69521;54.454;9.928;2023-05-24T03:02:41;101752.53;;;9.78;78.45
80202;BME280;69521;54.454;9.928;2023-05-24T03:05:07;101753.22;;;9.69;78.81
80202;BME280;69521;54.454;9.928;2023-05-24T03:07:35;101746.66;;;9.73;78.46
80202;BME280;69521;54.454;9.928;2023-05-24T03:10:01;101741.97;;;9.51;79.53
80202;BME280;69521;54.454;9.928;2023-05-24T03:12:26;101745.72;;;9.49;79.75
80202;BME280;69521;54.454;9.928;2023-05-24T03:14:54;101753.25;;;9.56;79.96
80202;BME280;69521;54.454;9.928;2023-05-24T03:17:19;101760.75;;;9.64;79.22
80202;BME280;69521;54.454;9.928;2023-05-24T03:19:45;101755.72;;;9.60;79.24
80202;BME280;69521;54.454;9.928;2023-05-24T03:22:10;101753.03;;;9.60;79.01
80202;BME280;69521;54.454;9.928;2023-05-24T03:24:38;101740.47;;;9.60;79.69
80202;BME280;69521;54.454;9.928;2023-05-24T03:27:17;101760.22;;;9.59;79.27
80202;BME280;69521;54.454;9.928;2023-05-24T03:29:49;101757.84;;;9.67;79.15
80202;BME280;69521;54.454;9.928;2023-05-24T03:32:15;101754.28;;;9.67;79.16
80202;BME280;69521;54.454;9.928;2023-05-24T03:34:48;101760.06;;;9.73;78.96
80202;BME280;69521;54.454;9.928;2023-05-24T03:37:28;101759.34;;;9.71;78.18
80202;BME280;69521;54.454;9.928;2023-05-24T03:40:07;101763.00;;;9.70;78.35
80202;BME280;69521;54.454;9.928;2023-05-24T03:42:43;101760.97;;;9.61;78.97
80202;BME280;69521;54.454;9.928;2023-05-24T03:45:09;101764.53;;;9.62;79.26
80202;BME280;69521;54.454;9.928;2023-05-24T03:47:37;101765.38;;;9.62;79.19
80202;BME280;69521;54.454;9.928;2023-05-24T03:50:04;101767.91;;;9.76;78.82
80202;BME280;69521;54.454;9.928;2023-05-24T03:52:41;101774.88;;;9.79;78.59
80202;BME280;69521;54.454;9.928;2023-05-24T03:55:21;101773.50;;;9.73;79.30
80202;BME280;69521;54.454;9.928;2023-05-24T03:58:12;101789.81;;;9.83;78.71
80202;BME280;69521;54.454;9.928;2023-05-24T04:00:59;101781.19;;;9.90;77.50
80202;BME280;69521;54.454;9.928;2023-05-24T04:03:35;101789.31;;;10.02;77.75
80202;BME280;69521;54.454;9.928;2023-05-24T04:06:10;101786.03;;;9.85;78.23
80202;BME280;69521;54.454;9.928;2023-05-24T04:08:57;101788.97;;;9.82;78.23
80202;BME280;69521;54.454;9.928;2023-05-24T04:11:43;101792.91;;;9.89;79.22
80202;BME280;69521;54.454;9.928;2023-05-24T04:14:09;101788.09;;;9.82;78.89
80202;BME280;69521;54.454;9.928;2023-05-24T04:16:36;101791.81;;;9.92;78.51
80202;BME280;69521;54.454;9.928;2023-05-24T04:19:04;101787.44;;;9.91;78.71
80202;BME280;69521;54.454;9.928;2023-05-24T04:21:30;101799.25;;;9.88;78.12
80202;BME280;69521;54.454;9.928;2023-05-24T04:24:06;101800.63;;;9.94;78.43
80202;BME280;69521;54.454;9.928;2023-05-24T04:26:33;101804.28;;;9.93;78.64
80202;BME280;69521;54.454;9.928;2023-05-24T04:29:04;101814.25;;;10.04;78.39
80202;BME280;69521;54.454;9.928;2023-05-24T04:31:34;101800.63;;;9.94;79.04
80202;BME280;69521;54.454;9.928;2023-05-24T04:34:02;101803.78;;;10.12;78.37
80202;BME280;69521;54.454;9.928;2023-05-24T04:36:28;101804.97;;;10.20;78.18
80202;BME280;69521;54.454;9.928;2023-05-24T04:38:55;101793.25;;;10.09;78.17
80202;BME280;69521;54.454;9.928;2023-05-24T04:41:33;101815.81;;;10.19;78.19
80202;BME280;69521;54.454;9.928;2023-05-24T04:44:07;101808.31;;;10.11;78.46
80202;BME280;69521;54.454;9.928;2023-05-24T04:46:45;101792.06;;;10.13;78.34
80202;BME280;69521;54.454;9.928;2023-05-24T04:49:42;101807.19;;;10.27;77.50
80202;BME280;69521;54.454;9.928;2023-05-24T04:52:27;101818.06;;;10.25;77.88
80202;BME280;69521;54.454;9.928;2023-05-24T04:54:52;101814.78;;;10.09;77.66
80202;BME280;69521;54.454;9.928;2023-05-24T04:57:38;101827.41;;;10.19;77.82
80202;BME280;69521;54.454;9.928;2023-05-24T05:00:06;101816.34;;;10.24;78.23
80202;BME280;69521;54.454;9.928;2023-05-24T05:02:49;101811.84;;;10.25;77.81
80202;BME280;69521;54.454;9.928;2023-05-24T05:05:15;101819.31;;;10.32;77.92
80202;BME280;69521;54.454;9.928;2023-05-24T05:10:36;101812.81;;;10.24;77.56
80202;BME280;69521;54.454;9.928;2023-05-24T05:13:04;101829.69;;;10.49;78.60
80202;BME280;69521;54.454;9.928;2023-05-24T05:15:37;101839.53;;;10.38;77.68
80202;BME280;69521;54.454;9.928;2023-05-24T05:18:02;101833.47;;;10.47;77.33
80202;BME280;69521;54.454;9.928;2023-05-24T05:20:28;101837.16;;;10.46;77.52
80202;BME280;69521;54.454;9.928;2023-05-24T05:22:55;101841.91;;;10.42;77.80
80202;BME280;69521;54.454;9.928;2023-05-24T05:25:23;101844.13;;;10.48;77.66
80202;BME280;69521;54.454;9.928;2023-05-24T05:27:49;101834.00;;;10.52;77.78
80202;BME280;69521;54.454;9.928;2023-05-24T05:34:01;101862.09;;;10.48;77.52
80202;BME280;69521;54.454;9.928;2023-05-24T05:36:39;101855.84;;;10.71;77.55
80202;BME280;69521;54.454;9.928;2023-05-24T05:39:06;101851.53;;;10.69;77.21
80202;BME280;69521;54.454;9.928;2023-05-24T05:41:37;101852.78;;;10.76;77.26
80202;BME280;69521;54.454;9.928;2023-05-24T05:44:03;101869.19;;;10.73;77.45
80202;BME280;69521;54.454;9.928;2023-05-24T05:46:28;101858.84;;;10.56;77.72
80202;BME280;69521;54.454;9.928;2023-05-24T05:48:53;101867.00;;;10.78;77.37
80202;BME280;69521;54.454;9.928;2023-05-24T05:51:37;101871.88;;;10.73;78.22
80202;BME280;69521;54.454;9.928;2023-05-24T05:54:05;101877.78;;;10.89;77.40
80202;BME280;69521;54.454;9.928;2023-05-24T05:56:38;101863.16;;;10.69;77.53
80202;BME280;69521;54.454;9.928;2023-05-24T05:59:09;101876.66;;;10.80;77.65
80202;BME280;69521;54.454;9.928;2023-05-24T06:01:38;101881.31;;;10.78;77.63
80202;BME280;69521;54.454;9.928;2023-05-24T06:04:10;101879.31;;;10.69;77.59
80202;BME280;69521;54.454;9.928;2023-05-24T06:06:37;101884.75;;;10.80;76.91
80202;BME280;69521;54.454;9.928;2023-05-24T06:09:03;101881.88;;;10.71;77.19
80202;BME280;69521;54.454;9.928;2023-05-24T06:11:28;101886.84;;;10.88;77.00
80202;BME280;69521;54.454;9.928;2023-05-24T06:14:11;101891.69;;;11.07;77.95
80202;BME280;69521;54.454;9.928;2023-05-24T06:17:08;101901.22;;;11.11;76.58
80202;BME280;69521;54.454;9.928;2023-05-24T06:22:57;101884.28;;;10.87;76.59
80202;BME280;69521;54.454;9.928;2023-05-24T06:25:32;101899.53;;;11.21;77.08
80202;BME280;69521;54.454;9.928;2023-05-24T06:28:48;101917.63;;;11.43;75.90
80202;BME280;69521;54.454;9.928;2023-05-24T06:31:13;101911.78;;;11.25;76.45
80202;BME280;69521;54.454;9.928;2023-05-24T06:33:41;101912.22;;;11.32;76.53
80202;BME280;69521;54.454;9.928;2023-05-24T06:36:16;101928.63;;;11.40;76.00
80202;BME280;69521;54.454;9.928;2023-05-24T06:38:44;101924.47;;;11.36;76.69
80202;BME280;69521;54.454;9.928;2023-05-24T06:41:10;101919.94;;;11.36;75.84
80202;BME280;69521;54.454;9.928;2023-05-24T06:43:56;101925.69;;;11.43;76.18
80202;BME280;69521;54.454;9.928;2023-05-24T06:46:23;101932.56;;;11.47;75.28
80202;BME280;69521;54.454;9.928;2023-05-24T06:48:51;101935.53;;;11.66;75.45
80202;BME280;69521;54.454;9.928;2023-05-24T06:51:57;101940.78;;;11.57;75.61
80202;BME280;69521;54.454;9.928;2023-05-24T06:54:33;101930.22;;;11.31;76.14
80202;BME280;69521;54.454;9.928;2023-05-24T06:56:58;101935.13;;;11.48;75.38
80202;BME280;69521;54.454;9.928;2023-05-24T06:59:24;101948.22;;;11.42;76.23
80202;BME280;69521;54.454;9.928;2023-05-24T07:01:52;101932.44;;;11.37;75.59
80202;BME280;69521;54.454;9.928;2023-05-24T07:04:22;101946.66;;;11.51;75.65
80202;BME280;69521;54.454;9.928;2023-05-24T07:06:49;101952.66;;;11.54;75.00
80202;BME280;69521;54.454;9.928;2023-05-24T07:09:18;101958.44;;;11.61;76.03
80202;BME280;69521;54.454;9.928;2023-05-24T07:11:43;101961.00;;;11.62;75.69
80202;BME280;69521;54.454;9.928;2023-05-24T07:14:09;101946.78;;;11.60;75.76
80202;BME280;69521;54.454;9.928;2023-05-24T07:16:35;101962.97;;;11.60;75.60
80202;BME280;69521;54.454;9.928;2023-05-24T07:19:00;101956.97;;;11.57;75.58
80202;BME280;69521;54.454;9.928;2023-05-24T07:21:26;101961.75;;;11.64;75.52
80202;BME280;69521;54.454;9.928;2023-05-24T07:23:59;101965.69;;;11.71;75.84
80202;BME280;69521;54.454;9.928;2023-05-24T07:26:24;101969.72;;;11.66;75.50
80202;BME280;69521;54.454;9.928;2023-05-24T07:28:50;101961.94;;;11.96;74.63
80202;BME280;69521;54.454;9.928;2023-05-24T07:31:26;101967.44;;;12.06;75.83
80202;BME280;69521;54.454;9.928;2023-05-24T07:33:58;101970.88;;;12.08;75.14
80202;BME280;69521;54.454;9.928;2023-05-24T07:36:33;101959.84;;;11.89;74.30
80202;BME280;69521;54.454;9.928;2023-05-24T07:38:59;101965.97;;;12.02;74.60
80202;BME280;69521;54.454;9.928;2023-05-24T07:41:27;101965.97;;;12.13;73.76
80202;BME280;69521;54.454;9.928;2023-05-24T07:43:55;101963.03;;;12.05;74.12
80202;BME280;69521;54.454;9.928;2023-05-24T07:49:55;101974.06;;;12.13;74.09
80202;BME280;69521;54.454;9.928;2023-05-24T07:52:36;101984.88;;;12.24;74.89
80202;BME280;69521;54.454;9.928;2023-05-24T07:55:03;101979.00;;;12.19;73.43
80202;BME280;69521;54.454;9.928;2023-05-24T07:58:21;101974.34;;;12.21;74.37
80202;BME280;69521;54.454;9.928;2023-05-24T08:01:02;101974.56;;;12.29;73.15
80202;BME280;69521;54.454;9.928;2023-05-24T08:03:30;101983.91;;;12.25;74.44
80202;BME280;69521;54.454;9.928;2023-05-24T08:05:56;101981.13;;;12.70;72.97
80202;BME280;69521;54.454;9.928;2023-05-24T08:08:22;101985.41;;;13.27;70.98
80202;BME280;69521;54.454;9.928;2023-05-24T08:10:49;101986.06;;;13.40;70.96
80202;BME280;69521;54.454;9.928;2023-05-24T08:13:17;101990.22;;;13.12;70.65
80202;BME280;69521;54.454;9.928;2023-05-24T08:16:05;101988.50;;;13.43;70.42
80202;BME280;69521;54.454;9.928;2023-05-24T08:18:33;102001.81;;;13.77;69.09
80202;BME280;69521;54.454;9.928;2023-05-24T08:21:01;101990.00;;;13.78;69.14
80202;BME280;69521;54.454;9.928;2023-05-24T08:23:36;101989.16;;;13.56;69.34
80202;BME280;69521;54.454;9.928;2023-05-24T08:26:06;101992.00;;;13.76;69.62
80202;BME280;69521;54.454;9.928;2023-05-24T08:28:48;102003.78;;;13.75;68.94
80202;BME280;69521;54.454;9.928;2023-05-24T08:31:14;101998.81;;;13.91;68.38
80202;BME280;69521;54.454;9.928;2023-05-24T08:33:40;102009.03;;;13.87;67.78
80202;BME280;69521;54.454;9.928;2023-05-24T08:36:13;102007.50;;;13.94;68.27
80202;BME280;69521;54.454;9.928;2023-05-24T08:38:44;102004.97;;;13.82;68.70
80202;BME280;69521;54.454;9.928;2023-05-24T08:41:11;102007.63;;;13.72;68.50
80202;BME280;69521;54.454;9.928;2023-05-24T08:43:37;102018.97;;;13.87;70.03
80202;BME280;69521;54.454;9.928;2023-05-24T08:46:04;102009.94;;;14.28;67.71
80202;BME280;69521;54.454;9.928;2023-05-24T08:48:33;102011.91;;;14.96;64.82
80202;BME280;69521;54.454;9.928;2023-05-24T08:51:04;102006.63;;;15.43;64.75
80202;BME280;69521;54.454;9.928;2023-05-24T08:53:36;102009.75;;;14.90;64.81
80202;BME280;69521;54.454;9.928;2023-05-24T08:56:08;102016.63;;;15.14;66.52
80202;BME280;69521;54.454;9.928;2023-05-24T08:58:46;102011.03;;;14.86;64.62
80202;BME280;69521;54.454;9.928;2023-05-24T09:01:21;102034.53;;;14.76;65.61
80202;BME280;69521;54.454;9.928;2023-05-24T09:03:53;102027.75;;;15.49;63.98
80202;BME280;69521;54.454;9.928;2023-05-24T09:06:19;102031.16;;;15.90;61.92
80202;BME280;69521;54.454;9.928;2023-05-24T09:08:47;102024.88;;;15.89;60.40
80202;BME280;69521;54.454;9.928;2023-05-24T09:11:30;102040.88;;;15.35;62.61
80202;BME280;69521;54.454;9.928;2023-05-24T09:14:20;102062.19;;;14.49;65.96
80202;BME280;69521;54.454;9.928;2023-05-24T09:16:52;102053.09;;;14.29;67.42
80202;BME280;69521;54.454;9.928;2023-05-24T09:19:55;102060.69;;;14.35;67.63
80202;BME280;69521;54.454;9.928;2023-05-24T09:22:39;102047.81;;;14.89;68.24
80202;BME280;69521;54.454;9.928;2023-05-24T09:25:44;102044.88;;;15.30;63.28
80202;BME280;69521;54.454;9.928;2023-05-24T09:28:47;102055.56;;;16.00;61.51
80202;BME280;69521;54.454;9.928;2023-05-24T09:35:23;102059.56;;;15.38;62.84
80202;BME280;69521;54.454;9.928;2023-05-24T09:37:54;102043.16;;;15.29;64.97
80202;BME280;69521;54.454;9.928;2023-05-24T09:40:28;102052.56;;;15.54;63.63
80202;BME280;69521;54.454;9.928;2023-05-24T09:43:07;102051.78;;;15.64;62.82
80202;BME280;69521;54.454;9.928;2023-05-24T16:46:00;102078.56;;;20.86;44.37
80202;BME280;69521;54.454;9.928;2023-05-24T16:55:33;102081.22;;;19.17;53.64
80202;BME280;69521;54.454;9.928;2023-05-24T17:05:29;102089.84;;;18.62;56.52
80202;BME280;69521;54.454;9.928;2023-05-24T17:08:07;102083.22;;;18.65;55.95
80202;BME280;69521;54.454;9.928;2023-05-24T17:10:33;102088.34;;;18.42;57.77
80202;BME280;69521;54.454;9.928;2023-05-24T17:12:59;102084.66;;;18.25;57.25
80202;BME280;69521;54.454;9.928;2023-05-24T17:15:36;102086.97;;;17.94;58.77
80202;BME280;69521;54.454;9.928;2023-05-24T17:18:18;102084.56;;;17.38;60.05
80202;BME280;69521;54.454;9.928;2023-05-24T17:20:51;102094.00;;;17.34;60.50
80202;BME280;69521;54.454;9.928;2023-05-24T17:23:27;102090.47;;;17.51;60.28
80202;BME280;69521;54.454;9.928;2023-05-24T17:26:31;102110.59;;;17.40;60.66
80202;BME280;69521;54.454;9.928;2023-05-24T17:29:07;102108.59;;;17.42;59.78
80202;BME280;69521;54.454;9.928;2023-05-24T17:31:39;102110.84;;;17.19;60.10
80202;BME280;69521;54.454;9.928;2023-05-24T17:34:11;102105.44;;;16.92;60.54
80202;BME280;69521;54.454;9.928;2023-05-24T17:36:57;102109.25;;;16.72;60.91
80202;BME280;69521;54.454;9.928;2023-05-24T17:39:22;102110.41;;;16.69;61.47
80202;BME280;69521;54.454;9.928;2023-05-24T17:41:48;102103.28;;;16.59;61.87
80202;BME280;69521;54.454;9.928;2023-05-24T17:47:37;102101.91;;;16.35;60.04
80202;BME280;69521;54.454;9.928;2023-05-24T17:50:10;102114.31;;;16.38;60.58
80202;BME280;69521;54.454;9.928;2023-05-24T17:52:56;102111.69;;;16.09;60.43
80202;BME280;69521;54.454;9.928;2023-05-24T17:55:22;102129.25;;;16.05;60.99
80202;BME280;69521;54.454;9.928;2023-05-24T17:57:50;102112.44;;;15.82;62.32
80202;BME280;69521;54.454;9.928;2023-05-24T18:00:28;102127.84;;;15.91;62.83
80202;BME280;69521;54.454;9.928;2023-05-24T18:03:11;102119.13;;;15.58;63.83
80202;BME280;69521;54.454;9.928;2023-05-24T18:05:46;102130.28;;;15.06;65.85
80202;BME280;69521;54.454;9.928;2023-05-24T18:08:14;102132.16;;;15.15;65.44
80202;BME280;69521;54.454;9.928;2023-05-24T18:10:55;102130.44;;;15.14;64.99
80202;BME280;69521;54.454;9.928;2023-05-24T18:13:23;102141.03;;;15.26;64.58
80202;BME280;69521;54.454;9.928;2023-05-24T18:15:51;102144.75;;;14.85;65.96
80202;BME280;69521;54.454;9.928;2023-05-24T18:18:17;102132.41;;;15.02;65.55
80202;BME280;69521;54.454;9.928;2023-05-24T18:20:42;102141.25;;;14.74;66.98
80202;BME280;69521;54.454;9.928;2023-05-24T18:23:08;102153.63;;;14.66;67.43
80202;BME280;69521;54.454;9.928;2023-05-24T18:25:33;102141.25;;;14.74;67.01
80202;BME280;69521;54.454;9.928;2023-05-24T18:27:59;102149.59;;;14.61;68.07
80202;BME280;69521;54.454;9.928;2023-05-24T18:30:25;102155.13;;;14.80;67.09
80202;BME280;69521;54.454;9.928;2023-05-24T18:32:50;102141.22;;;14.64;67.40
80202;BME280;69521;54.454;9.928;2023-05-24T18:35:17;102148.88;;;14.59;67.64
80202;BME280;69521;54.454;9.928;2023-05-24T18:37:45;102156.41;;;14.76;67.13
80202;BME280;69521;54.454;9.928;2023-05-24T18:40:12;102156.47;;;14.65;67.33
80202;BME280;69521;54.454;9.928;2023-05-24T18:42:38;102150.72;;;14.58;67.31
80202;BME280;69521;54.454;9.928;2023-05-24T18:45:04;102146.97;;;14.50;67.63
80202;BME280;69521;54.454;9.928;2023-05-24T18:47:30;102158.00;;;14.37;68.56
80202;BME280;69521;54.454;9.928;2023-05-24T18:49:55;102159.84;;;14.37;68.39
80202;BME280;69521;54.454;9.928;2023-05-24T18:52:20;102146.78;;;14.21;69.28
80202;BME280;69521;54.454;9.928;2023-05-24T18:54:48;102151.78;;;14.05;70.39
80202;BME280;69521;54.454;9.928;2023-05-24T18:57:14;102137.03;;;13.77;70.28
80202;BME280;69521;54.454;9.928;2023-05-24T18:59:39;102150.47;;;13.67;70.74
80202;BME280;69521;54.454;9.928;2023-05-24T19:02:04;102149.91;;;13.52;71.32
80202;BME280;69521;54.454;9.928;2023-05-24T19:04:30;102156.72;;;13.67;70.38
80202;BME280;69521;54.454;9.928;2023-05-24T19:06:56;102143.91;;;13.49;70.90
80202;BME280;69521;54.454;9.928;2023-05-24T19:09:22;102147.41;;;13.60;70.54
80202;BME280;69521;54.454;9.928;2023-05-24T19:11:48;102148.19;;;13.51;71.27
80202;BME280;69521;54.454;9.928;2023-05-24T19:14:13;102164.69;;;13.37;71.37
80202;BME280;69521;54.454;9.928;2023-05-24T19:16:39;102171.31;;;13.44;70.75
80202;BME280;69521;54.454;9.928;2023-05-24T19:19:04;102165.06;;;13.32;70.86
80202;BME280;69521;54.454;9.928;2023-05-24T19:21:30;102171.47;;;13.31;71.07
80202;BME280;69521;54.454;9.928;2023-05-24T19:23:56;102170.72;;;13.29;70.78
80202;BME280;69521;54.454;9.928;2023-05-24T19:26:21;102167.66;;;13.23;70.49
80202;BME280;69521;54.454;9.928;2023-05-24T19:28:47;102170.09;;;13.15;70.97
80202;BME280;69521;54.454;9.928;2023-05-24T19:31:16;102176.03;;;13.20;70.88
80202;BME280;69521;54.454;9.928;2023-05-24T19:33:42;102175.38;;;13.16;70.90
80202;BME280;69521;54.454;9.928;2023-05-24T19:36:10;102189.03;;;13.26;70.44
80202;BME280;69521;54.454;9.928;2023-05-24T19:38:35;102188.66;;;13.08;70.56
80202;BME280;69521;54.454;9.928;2023-05-24T19:41:00;102197.25;;;13.13;70.83
80202;BME280;69521;54.454;9.928;2023-05-24T19:43:26;102206.34;;;13.23;70.71
80202;BME280;69521;54.454;9.928;2023-05-24T19:45:51;102196.03;;;13.06;71.20
80202;BME280;69521;54.454;9.928;2023-05-24T19:48:18;102212.22;;;13.06;71.54
80202;BME280;69521;54.454;9.928;2023-05-24T19:50:44;102216.00;;;12.92;72.00
80202;BME280;69521;54.454;9.928;2023-05-24T19:53:09;102208.63;;;12.83;71.37
80202;BME280;69521;54.454;9.928;2023-05-24T19:55:35;102205.91;;;12.61;71.96
80202;BME280;69521;54.454;9.928;2023-05-24T19:58:01;102210.69;;;12.57;72.43
80202;BME280;69521;54.454;9.928;2023-05-24T20:00:26;102213.75;;;12.53;72.88
80202;BME280;69521;54.454;9.928;2023-05-24T20:02:51;102223.06;;;12.49;73.11
80202;BME280;69521;54.454;9.928;2023-05-24T20:05:17;102230.25;;;12.26;74.10
80202;BME280;69521;54.454;9.928;2023-05-24T20:07:42;102218.25;;;12.30;73.52
80202;BME280;69521;54.454;9.928;2023-05-24T20:10:17;102226.19;;;12.20;74.07
80202;BME280;69521;54.454;9.928;2023-05-24T20:12:42;102239.19;;;12.26;74.11
80202;BME280;69521;54.454;9.928;2023-05-24T20:15:08;102237.97;;;12.19;74.53
80202;BME280;69521;54.454;9.928;2023-05-24T20:17:34;102231.75;;;12.06;74.89
80202;BME280;69521;54.454;9.928;2023-05-24T20:19:59;102235.75;;;12.24;74.26
80202;BME280;69521;54.454;9.928;2023-05-24T20:22:25;102226.13;;;12.09;75.01
80202;BME280;69521;54.454;9.928;2023-05-24T20:24:50;102230.03;;;12.05;75.13
80202;BME280;69521;54.454;9.928;2023-05-24T20:27:15;102244.47;;;12.04;75.48
80202;BME280;69521;54.454;9.928;2023-05-24T20:29:41;102241.03;;;12.02;75.95
80202;BME280;69521;54.454;9.928;2023-05-24T20:32:06;102239.84;;;12.06;75.84
80202;BME280;69521;54.454;9.928;2023-05-24T20:34:32;102236.97;;;11.96;76.60
80202;BME280;69521;54.454;9.928;2023-05-24T20:36:57;102240.53;;;11.97;76.69
80202;BME280;69521;54.454;9.928;2023-05-24T20:39:22;102241.28;;;11.99;76.74
80202;BME280;69521;54.454;9.928;2023-05-24T20:41:48;102243.69;;;11.91;77.47
80202;BME280;69521;54.454;9.928;2023-05-24T20:44:13;102239.66;;;11.96;76.61
80202;BME280;69521;54.454;9.928;2023-05-24T20:46:39;102236.22;;;12.18;76.45
80202;BME280;69521;54.454;9.928;2023-05-24T20:49:05;102232.13;;;12.12;76.72
80202;BME280;69521;54.454;9.928;2023-05-24T20:51:31;102244.84;;;12.23;76.45
80202;BME280;69521;54.454;9.928;2023-05-24T20:53:57;102242.50;;;12.19;76.30
80202;BME280;69521;54.454;9.928;2023-05-24T20:56:22;102245.72;;;12.35;75.89
80202;BME280;69521;54.454;9.928;2023-05-24T20:58:48;102243.16;;;12.33;75.83
80202;BME280;69521;54.454;9.928;2023-05-24T21:01:18;102228.66;;;12.23;76.49
80202;BME280;69521;54.454;9.928;2023-05-24T21:03:44;102246.47;;;12.13;76.79